sensor_id;sensor_type;location;lat;lon;timestamp;temperature;humidity
18335;DHT22;9293;49.524;10.964;2023-09-18T00:00:56;17.80;99.90
18335;DHT22;9293;49.524;10.964;2023-09-18T00:03:25;17.90;99.90
18335;DHT22;9293;49.524;10.964;2023-09-18T00:05:53;17.80;99.90
18335;DHT22;9293;49.524;10.964;2023-09-18T00:08:21;17.70;99.90
18335;DHT22;9293;49.524;10.964;2023-09-18T00:10:51;17.50;99.90
18335;DHT22;9293;49.524;10.964;2023-09-18T00:13:20;17.40;99.90
18335;DHT22;9293;49.524;10.964;2023-09-18T00:15:48;17.40;99.90
18335;DHT22;9293;49.524;10.964;2023-09-18T00:18:17;17.40;99.90
18335;DHT22;9293;49.524;10.964;2023-09-18T00:20:45;17.40;99.90
18335;DHT22;9293;49.524;10.964;2023-09-18T00:23:16;17.50;99.90
18335;DHT22;9293;49.524;10.964;2023-09-18T00:25:44;17.60;99.90
18335;DHT22;9293;49.524;10.964;2023-09-18T00:28:12;17.70;99.90
18335;DHT22;9293;49.524;10.964;2023-09-18T00:30:47;17.70;99.90
18335;DHT22;9293;49.524;10.964;2023-09-18T00:33:17;17.70;99.90
18335;DHT22;9293;49.524;10.964;2023-09-18T00:35:50;17.70;99.90
18335;DHT22;9293;49.524;10.964;2023-09-18T00:38:19;17.80;99.90
18335;DHT22;9293;49.524;10.964;2023-09-18T00:40:50;17.80;99.90
18335;DHT22;9293;49.524;10.964;2023-09-18T00:43:18;17.80;99.90
18335;DHT22;9293;49.524;10.964;2023-09-18T00:45:47;17.70;99.90
18335;DHT22;9293;49.524;10.964;2023-09-18T00:48:16;17.70;99.90
18335;DHT22;9293;49.524;10.964;2023-09-18T00:50:44;17.70;99.90
18335;DHT22;9293;49.524;10.964;2023-09-18T00:53:17;17.70;99.90
18335;DHT22;9293;49.524;10.964;2023-09-18T00:55:46;17.60;99.90
18335;DHT22;9293;49.524;10.964;2023-09-18T00:58:18;17.60;99.90
18335;DHT22;9293;49.524;10.964;2023-09-18T01:00:49;17.50;99.90
18335;DHT22;9293;49.524;10.964;2023-09-18T01:03:22;17.40;99.90
18335;DHT22;9293;49.524;10.964;2023-09-18T01:05:51;17.30;99.90
18335;DHT22;9293;49.524;10.964;2023-09-18T01:08:19;17.40;99.90
18335;DHT22;9293;49.524;10.964;2023-09-18T01:10:53;17.40;99.90
18335;DHT22;9293;49.524;10.964;2023-09-18T01:13:23;17.40;99.90
18335;DHT22;9293;49.524;10.964;2023-09-18T01:16:06;17.40;99.90
18335;DHT22;9293;49.524;10.964;2023-09-18T01:18:36;17.30;99.90
18335;DHT22;9293;49.524;10.964;2023-09-18T01:21:04;17.10;99.90
18335;DHT22;9293;49.524;10.964;2023-09-18T01:23:33;17.00;99.90
18335;DHT22;9293;49.524;10.964;2023-09-18T01:26:01;17.10;99.90
18335;DHT22;9293;49.524;10.964;2023-09-18T01:28:29;17.20;99.90
18335;DHT22;9293;49.524;10.964;2023-09-18T01:30:57;17.20;99.90
18335;DHT22;9293;49.524;10.964;2023-09-18T01:33:26;17.00;99.90
18335;DHT22;9293;49.524;10.964;2023-09-18T01:35:55;17.00;99.90
18335;DHT22;9293;49.524;10.964;2023-09-18T01:38:27;17.00;99.90
18335;DHT22;9293;49.524;10.964;2023-09-18T01:40:55;17.10;99.90
18335;DHT22;9293;49.524;10.964;2023-09-18T01:43:24;17.10;99.90
18335;DHT22;9293;49.524;10.964;2023-09-18T01:45:52;17.10;99.90
18335;DHT22;9293;49.524;10.964;2023-09-18T01:48:21;17.00;99.90
18335;DHT22;9293;49.524;10.964;2023-09-18T01:50:49;16.90;99.90
18335;DHT22;9293;49.524;10.964;2023-09-18T01:53:18;17.00;99.90
18335;DHT22;9293;49.524;10.964;2023-09-18T01:55:46;17.00;99.90
18335;DHT22;9293;49.524;10.964;2023-09-18T01:58:15;17.00;99.90
18335;DHT22;9293;49.524;10.964;2023-09-18T02:00:48;17.00;99.90
18335;DHT22;9293;49.524;10.964;2023-09-18T02:03:20;17.00;99.90
18335;DHT22;9293;49.524;10.964;2023-09-18T02:06:09;17.00;99.90
18335;DHT22;9293;49.524;10.964;2023-09-18T02:08:38;17.00;99.90
18335;DHT22;9293;49.524;10.964;2023-09-18T02:11:07;17.00;99.90
18335;DHT22;9293;49.524;10.964;2023-09-18T02:13:35;16.90;99.90
18335;DHT22;9293;49.524;10.964;2023-09-18T02:16:03;16.90;99.90
18335;DHT22;9293;49.524;10.964;2023-09-18T02:18:31;16.90;99.90
18335;DHT22;9293;49.524;10.964;2023-09-18T02:21:00;16.80;99.90
18335;DHT22;9293;49.524;10.964;2023-09-18T02:23:28;16.80;99.90
18335;DHT22;9293;49.524;10.964;2023-09-18T02:25:57;16.90;99.90
18335;DHT22;9293;49.524;10.964;2023-09-18T02:28:26;16.80;99.90
18335;DHT22;9293;49.524;10.964;2023-09-18T02:30:54;16.90;99.90
18335;DHT22;9293;49.524;10.964;2023-09-18T02:33:22;16.90;99.90
18335;DHT22;9293;49.524;10.964;2023-09-18T02:35:50;16.90;99.90
18335;DHT22;9293;49.524;10.964;2023-09-18T02:38:18;16.90;99.90
18335;DHT22;9293;49.524;10.964;2023-09-18T02:40:47;16.90;99.90
18335;DHT22;9293;49.524;10.964;2023-09-18T02:43:15;16.90;99.90
18335;DHT22;9293;49.524;10.964;2023-09-18T02:45:43;16.80;99.90
18335;DHT22;9293;49.524;10.964;2023-09-18T02:48:12;16.80;99.90
18335;DHT22;9293;49.524;10.964;2023-09-18T02:50:41;16.80;99.90
18335;DHT22;9293;49.524;10.964;2023-09-18T02:53:19;16.60;99.90
18335;DHT22;9293;49.524;10.964;2023-09-18T02:55:49;16.40;99.90
18335;DHT22;9293;49.524;10.964;2023-09-18T02:58:17;16.30;99.90
18335;DHT22;9293;49.524;10.964;2023-09-18T03:00:49;16.30;99.90
18335;DHT22;9293;49.524;10.964;2023-09-18T03:03:23;16.30;99.90
18335;DHT22;9293;49.524;10.964;2023-09-18T03:05:51;16.30;99.90
18335;DHT22;9293;49.524;10.964;2023-09-18T03:08:19;16.40;99.90
18335;DHT22;9293;49.524;10.964;2023-09-18T03:10:48;16.30;99.90
18335;DHT22;9293;49.524;10.964;2023-09-18T03:13:17;16.30;99.90
18335;DHT22;9293;49.524;10.964;2023-09-18T03:15:45;16.40;99.90
18335;DHT22;9293;49.524;10.964;2023-09-18T03:18:15;16.40;99.90
18335;DHT22;9293;49.524;10.964;2023-09-18T03:20:43;16.40;99.90
18335;DHT22;9293;49.524;10.964;2023-09-18T03:23:11;16.20;99.90
18335;DHT22;9293;49.524;10.964;2023-09-18T03:25:40;16.10;99.90
18335;DHT22;9293;49.524;10.964;2023-09-18T03:28:18;16.10;99.90
18335;DHT22;9293;49.524;10.964;2023-09-18T03:30:47;16.20;99.90
18335;DHT22;9293;49.524;10.964;2023-09-18T03:33:19;16.20;99.90
18335;DHT22;9293;49.524;10.964;2023-09-18T03:35:51;16.20;99.90
18335;DHT22;9293;49.524;10.964;2023-09-18T03:38:25;16.10;99.90
18335;DHT22;9293;49.524;10.964;2023-09-18T03:40:54;16.00;99.90
18335;DHT22;9293;49.524;10.964;2023-09-18T03:43:22;16.00;99.90
18335;DHT22;9293;49.524;10.964;2023-09-18T03:45:50;16.10;99.90
18335;DHT22;9293;49.524;10.964;2023-09-18T03:48:20;16.20;99.90
18335;DHT22;9293;49.524;10.964;2023-09-18T03:50:49;16.20;99.90
18335;DHT22;9293;49.524;10.964;2023-09-18T03:53:17;16.10;99.90
18335;DHT22;9293;49.524;10.964;2023-09-18T03:55:46;16.00;99.90
18335;DHT22;9293;49.524;10.964;2023-09-18T03:58:15;16.00;99.90
18335;DHT22;9293;49.524;10.964;2023-09-18T04:00:44;16.00;99.90
18335;DHT22;9293;49.524;10.964;2023-09-18T04:03:12;16.10;99.90
18335;DHT22;9293;49.524;10.964;2023-09-18T04:05:40;16.10;99.90
18335;DHT22;9293;49.524;10.964;2023-09-18T04:08:10;16.00;99.90
18335;DHT22;9293;49.524;10.964;2023-09-18T04:10:40;16.00;99.90
18335;DHT22;9293;49.524;10.964;2023-09-18T04:13:09;15.90;99.90
18335;DHT22;9293;49.524;10.964;2023-09-18T04:15:41;15.90;99.90
18335;DHT22;9293;49.524;10.964;2023-09-18T04:18:10;15.90;99.90
18335;DHT22;9293;49.524;10.964;2023-09-18T04:20:38;15.90;99.90
18335;DHT22;9293;49.524;10.964;2023-09-18T04:23:16;15.80;99.90
18335;DHT22;9293;49.524;10.964;2023-09-18T04:25:45;15.80;99.90
18335;DHT22;9293;49.524;10.964;2023-09-18T04:28:16;15.90;99.90
18335;DHT22;9293;49.524;10.964;2023-09-18T04:30:46;16.10;99.90
18335;DHT22;9293;49.524;10.964;2023-09-18T04:33:15;16.20;99.90
18335;DHT22;9293;49.524;10.964;2023-09-18T04:35:44;16.30;99.90
18335;DHT22;9293;49.524;10.964;2023-09-18T04:38:13;16.30;99.90
18335;DHT22;9293;49.524;10.964;2023-09-18T04:40:45;16.40;99.90
18335;DHT22;9293;49.524;10.964;2023-09-18T04:43:14;16.40;99.90
18335;DHT22;9293;49.524;10.964;2023-09-18T04:45:43;16.40;99.90
18335;DHT22;9293;49.524;10.964;2023-09-18T04:48:13;16.50;99.90
18335;DHT22;9293;49.524;10.964;2023-09-18T04:50:42;16.50;99.90
18335;DHT22;9293;49.524;10.964;2023-09-18T04:53:10;16.50;99.90
18335;DHT22;9293;49.524;10.964;2023-09-18T04:55:39;16.50;99.90
18335;DHT22;9293;49.524;10.964;2023-09-18T04:58:07;16.40;99.90
18335;DHT22;9293;49.524;10.964;2023-09-18T05:00:36;16.30;99.90
18335;DHT22;9293;49.524;10.964;2023-09-18T05:03:04;16.40;99.90
18335;DHT22;9293;49.524;10.964;2023-09-18T05:05:36;16.50;99.90
18335;DHT22;9293;49.524;10.964;2023-09-18T05:08:06;16.60;99.90
18335;DHT22;9293;49.524;10.964;2023-09-18T05:10:36;16.60;99.90
18335;DHT22;9293;49.524;10.964;2023-09-18T05:13:04;16.70;99.90
18335;DHT22;9293;49.524;10.964;2023-09-18T05:15:36;16.70;99.90
18335;DHT22;9293;49.524;10.964;2023-09-18T05:18:09;16.70;99.90
18335;DHT22;9293;49.524;10.964;2023-09-18T05:20:37;16.80;99.90
18335;DHT22;9293;49.524;10.964;2023-09-18T05:23:07;16.80;99.90
18335;DHT22;9293;49.524;10.964;2023-09-18T05:25:36;16.70;99.90
18335;DHT22;9293;49.524;10.964;2023-09-18T05:28:06;16.80;99.90
18335;DHT22;9293;49.524;10.964;2023-09-18T05:30:34;16.80;99.90
18335;DHT22;9293;49.524;10.964;2023-09-18T05:33:06;16.80;99.90
18335;DHT22;9293;49.524;10.964;2023-09-18T05:35:40;16.80;99.90
18335;DHT22;9293;49.524;10.964;2023-09-18T05:38:11;16.90;99.90
18335;DHT22;9293;49.524;10.964;2023-09-18T05:40:41;17.00;99.90
18335;DHT22;9293;49.524;10.964;2023-09-18T05:43:09;17.10;99.90
18335;DHT22;9293;49.524;10.964;2023-09-18T05:45:38;17.20;99.90
18335;DHT22;9293;49.524;10.964;2023-09-18T05:48:06;17.30;99.90
18335;DHT22;9293;49.524;10.964;2023-09-18T05:50:35;17.40;99.90
18335;DHT22;9293;49.524;10.964;2023-09-18T05:53:04;17.40;99.90
18335;DHT22;9293;49.524;10.964;2023-09-18T05:55:32;17.50;99.90
18335;DHT22;9293;49.524;10.964;2023-09-18T05:58:01;17.50;99.90
18335;DHT22;9293;49.524;10.964;2023-09-18T06:00:32;17.50;99.90
18335;DHT22;9293;49.524;10.964;2023-09-18T06:03:00;17.60;99.90
18335;DHT22;9293;49.524;10.964;2023-09-18T06:05:30;17.70;99.90
18335;DHT22;9293;49.524;10.964;2023-09-18T06:08:01;17.80;99.90
18335;DHT22;9293;49.524;10.964;2023-09-18T06:10:29;17.90;99.90
18335;DHT22;9293;49.524;10.964;2023-09-18T06:12:58;18.00;99.90
18335;DHT22;9293;49.524;10.964;2023-09-18T06:15:36;18.10;99.90
18335;DHT22;9293;49.524;10.964;2023-09-18T06:18:08;18.30;99.90
18335;DHT22;9293;49.524;10.964;2023-09-18T06:20:36;18.30;99.90
18335;DHT22;9293;49.524;10.964;2023-09-18T06:23:05;18.40;99.90
18335;DHT22;9293;49.524;10.964;2023-09-18T06:25:40;18.50;99.90
18335;DHT22;9293;49.524;10.964;2023-09-18T06:28:12;18.60;99.90
18335;DHT22;9293;49.524;10.964;2023-09-18T06:30:40;18.80;99.90
18335;DHT22;9293;49.524;10.964;2023-09-18T06:33:09;19.00;99.90
18335;DHT22;9293;49.524;10.964;2023-09-18T06:35:40;19.00;99.90
18335;DHT22;9293;49.524;10.964;2023-09-18T06:38:08;19.10;99.90
18335;DHT22;9293;49.524;10.964;2023-09-18T06:40:39;19.20;99.90
18335;DHT22;9293;49.524;10.964;2023-09-18T06:43:07;19.60;99.90
18335;DHT22;9293;49.524;10.964;2023-09-18T06:45:36;19.90;99.90
18335;DHT22;9293;49.524;10.964;2023-09-18T06:48:05;20.00;99.90
18335;DHT22;9293;49.524;10.964;2023-09-18T06:50:34;20.10;99.90
18335;DHT22;9293;49.524;10.964;2023-09-18T06:53:02;20.10;99.90
18335;DHT22;9293;49.524;10.964;2023-09-18T06:55:30;20.20;99.90
18335;DHT22;9293;49.524;10.964;2023-09-18T06:57:58;20.20;99.90
18335;DHT22;9293;49.524;10.964;2023-09-18T07:00:26;20.40;99.90
18335;DHT22;9293;49.524;10.964;2023-09-18T07:02:54;20.50;99.90
18335;DHT22;9293;49.524;10.964;2023-09-18T07:05:23;20.60;99.90
18335;DHT22;9293;49.524;10.964;2023-09-18T07:07:51;20.90;99.90
18335;DHT22;9293;49.524;10.964;2023-09-18T07:10:20;21.40;99.90
18335;DHT22;9293;49.524;10.964;2023-09-18T07:12:48;21.90;99.90
18335;DHT22;9293;49.524;10.964;2023-09-18T07:15:16;22.70;99.90
18335;DHT22;9293;49.524;10.964;2023-09-18T07:17:44;23.30;99.90
18335;DHT22;9293;49.524;10.964;2023-09-18T07:20:13;23.80;99.90
18335;DHT22;9293;49.524;10.964;2023-09-18T07:22:46;24.10;99.90
18335;DHT22;9293;49.524;10.964;2023-09-18T07:25:15;23.90;99.90
18335;DHT22;9293;49.524;10.964;2023-09-18T07:27:43;23.40;99.90
18335;DHT22;9293;49.524;10.964;2023-09-18T07:30:12;22.90;99.90
18335;DHT22;9293;49.524;10.964;2023-09-18T07:32:42;22.60;99.90
18335;DHT22;9293;49.524;10.964;2023-09-18T07:35:11;22.40;99.90
18335;DHT22;9293;49.524;10.964;2023-09-18T07:37:42;22.50;99.90
18335;DHT22;9293;49.524;10.964;2023-09-18T07:40:15;23.30;99.90
18335;DHT22;9293;49.524;10.964;2023-09-18T07:42:44;24.00;99.90
18335;DHT22;9293;49.524;10.964;2023-09-18T07:45:12;24.50;99.90
18335;DHT22;9293;49.524;10.964;2023-09-18T07:47:40;24.90;99.90
18335;DHT22;9293;49.524;10.964;2023-09-18T07:50:08;25.40;99.90
18335;DHT22;9293;49.524;10.964;2023-09-18T07:52:37;25.60;99.90
18335;DHT22;9293;49.524;10.964;2023-09-18T07:55:05;25.50;99.90
18335;DHT22;9293;49.524;10.964;2023-09-18T07:57:33;26.20;99.90
18335;DHT22;9293;49.524;10.964;2023-09-18T08:00:02;26.90;99.90
18335;DHT22;9293;49.524;10.964;2023-09-18T08:02:38;27.30;99.90
18335;DHT22;9293;49.524;10.964;2023-09-18T08:05:07;27.10;99.90
18335;DHT22;9293;49.524;10.964;2023-09-18T08:07:36;26.70;99.90
18335;DHT22;9293;49.524;10.964;2023-09-18T08:10:05;26.80;99.90
18335;DHT22;9293;49.524;10.964;2023-09-18T08:12:34;26.80;99.90
18335;DHT22;9293;49.524;10.964;2023-09-18T08:15:02;27.30;99.90
18335;DHT22;9293;49.524;10.964;2023-09-18T08:17:33;28.00;99.90
18335;DHT22;9293;49.524;10.964;2023-09-18T08:20:02;28.70;99.90
18335;DHT22;9293;49.524;10.964;2023-09-18T08:22:31;29.10;99.90
18335;DHT22;9293;49.524;10.964;2023-09-18T08:24:59;29.20;99.90
18335;DHT22;9293;49.524;10.964;2023-09-18T08:27:27;28.60;99.90
18335;DHT22;9293;49.524;10.964;2023-09-18T08:29:56;27.80;99.90
18335;DHT22;9293;49.524;10.964;2023-09-18T08:32:25;27.10;99.90
18335;DHT22;9293;49.524;10.964;2023-09-18T08:34:53;26.80;99.90
18335;DHT22;9293;49.524;10.964;2023-09-18T08:37:21;26.60;99.90
18335;DHT22;9293;49.524;10.964;2023-09-18T08:39:49;27.30;99.90
18335;DHT22;9293;49.524;10.964;2023-09-18T08:42:18;28.20;99.90
18335;DHT22;9293;49.524;10.964;2023-09-18T08:44:49;28.80;99.90
18335;DHT22;9293;49.524;10.964;2023-09-18T08:47:19;29.40;99.90
18335;DHT22;9293;49.524;10.964;2023-09-18T08:49:48;30.10;99.90
18335;DHT22;9293;49.524;10.964;2023-09-18T08:52:17;30.50;99.90
18335;DHT22;9293;49.524;10.964;2023-09-18T08:54:45;31.00;99.90
18335;DHT22;9293;49.524;10.964;2023-09-18T08:57:13;30.80;99.90
18335;DHT22;9293;49.524;10.964;2023-09-18T08:59:41;30.20;99.90
18335;DHT22;9293;49.524;10.964;2023-09-18T09:02:13;30.00;99.90
18335;DHT22;9293;49.524;10.964;2023-09-18T09:04:44;29.70;99.90
18335;DHT22;9293;49.524;10.964;2023-09-18T09:07:12;29.00;99.90
18335;DHT22;9293;49.524;10.964;2023-09-18T09:09:40;28.50;99.90
18335;DHT22;9293;49.524;10.964;2023-09-18T09:12:09;28.10;99.90
18335;DHT22;9293;49.524;10.964;2023-09-18T09:14:38;27.70;99.90
18335;DHT22;9293;49.524;10.964;2023-09-18T09:17:06;27.30;99.90
18335;DHT22;9293;49.524;10.964;2023-09-18T09:19:35;26.90;99.90
18335;DHT22;9293;49.524;10.964;2023-09-18T09:22:19;26.40;99.90
18335;DHT22;9293;49.524;10.964;2023-09-18T09:24:47;26.30;99.90
18335;DHT22;9293;49.524;10.964;2023-09-18T09:27:15;26.60;99.90
18335;DHT22;9293;49.524;10.964;2023-09-18T09:29:57;27.10;99.90
18335;DHT22;9293;49.524;10.964;2023-09-18T09:32:27;27.90;99.90
18335;DHT22;9293;49.524;10.964;2023-09-18T09:34:57;28.70;99.90
18335;DHT22;9293;49.524;10.964;2023-09-18T09:37:31;29.00;99.90
18335;DHT22;9293;49.524;10.964;2023-09-18T09:40:02;29.20;99.90
18335;DHT22;9293;49.524;10.964;2023-09-18T09:42:40;29.50;99.90
18335;DHT22;9293;49.524;10.964;2023-09-18T09:45:13;29.60;99.90
18335;DHT22;9293;49.524;10.964;2023-09-18T09:47:42;29.90;99.90
18335;DHT22;9293;49.524;10.964;2023-09-18T09:50:12;30.20;99.90
18335;DHT22;9293;49.524;10.964;2023-09-18T09:52:44;30.10;99.90
18335;DHT22;9293;49.524;10.964;2023-09-18T09:55:17;30.00;99.90
18335;DHT22;9293;49.524;10.964;2023-09-18T09:57:46;30.10;99.90
18335;DHT22;9293;49.524;10.964;2023-09-18T10:00:15;30.00;99.90
18335;DHT22;9293;49.524;10.964;2023-09-18T10:02:57;29.80;99.90
18335;DHT22;9293;49.524;10.964;2023-09-18T10:05:33;29.70;99.90
18335;DHT22;9293;49.524;10.964;2023-09-18T10:08:07;29.50;99.90
18335;DHT22;9293;49.524;10.964;2023-09-18T10:10:40;29.40;99.90
18335;DHT22;9293;49.524;10.964;2023-09-18T10:13:23;29.00;99.90
18335;DHT22;9293;49.524;10.964;2023-09-18T10:15:54;28.50;99.90
18335;DHT22;9293;49.524;10.964;2023-09-18T10:18:28;28.30;99.90
18335;DHT22;9293;49.524;10.964;2023-09-18T10:21:03;28.00;99.90
18335;DHT22;9293;49.524;10.964;2023-09-18T10:23:37;27.70;99.90
18335;DHT22;9293;49.524;10.964;2023-09-18T10:26:07;27.60;99.90
18335;DHT22;9293;49.524;10.964;2023-09-18T10:28:38;27.50;99.90
18335;DHT22;9293;49.524;10.964;2023-09-18T10:31:07;27.70;99.90
18335;DHT22;9293;49.524;10.964;2023-09-18T10:33:36;27.60;99.90
18335;DHT22;9293;49.524;10.964;2023-09-18T10:36:06;27.50;99.90
18335;DHT22;9293;49.524;10.964;2023-09-18T10:38:35;27.50;99.90
18335;DHT22;9293;49.524;10.964;2023-09-18T10:41:06;27.50;99.90
18335;DHT22;9293;49.524;10.964;2023-09-18T10:43:36;27.30;99.90
18335;DHT22;9293;49.524;10.964;2023-09-18T10:46:05;27.10;99.90
18335;DHT22;9293;49.524;10.964;2023-09-18T10:48:33;27.00;99.90
18335;DHT22;9293;49.524;10.964;2023-09-18T10:51:01;27.00;99.90
18335;DHT22;9293;49.524;10.964;2023-09-18T10:53:33;26.80;99.90
18335;DHT22;9293;49.524;10.964;2023-09-18T10:56:02;26.70;99.90
18335;DHT22;9293;49.524;10.964;2023-09-18T10:58:39;26.60;99.90
18335;DHT22;9293;49.524;10.964;2023-09-18T11:01:07;26.40;99.90
18335;DHT22;9293;49.524;10.964;2023-09-18T11:03:39;26.30;99.90
18335;DHT22;9293;49.524;10.964;2023-09-18T11:06:08;26.10;99.90
18335;DHT22;9293;49.524;10.964;2023-09-18T11:11:07;25.90;99.90
18335;DHT22;9293;49.524;10.964;2023-09-18T11:13:48;25.90;99.90
18335;DHT22;9293;49.524;10.964;2023-09-18T11:21:31;25.40;99.90
18335;DHT22;9293;49.524;10.964;2023-09-18T11:26:31;25.20;99.90
18335;DHT22;9293;49.524;10.964;2023-09-18T11:29:21;25.00;99.90
18335;DHT22;9293;49.524;10.964;2023-09-18T11:31:54;24.90;99.90
18335;DHT22;9293;49.524;10.964;2023-09-18T11:34:30;24.80;99.90
18335;DHT22;9293;49.524;10.964;2023-09-18T11:37:19;24.80;99.90
18335;DHT22;9293;49.524;10.964;2023-09-18T11:39:47;24.80;99.90
18335;DHT22;9293;49.524;10.964;2023-09-18T11:42:17;24.70;99.90
18335;DHT22;9293;49.524;10.964;2023-09-18T11:44:48;24.70;99.90
18335;DHT22;9293;49.524;10.964;2023-09-18T11:47:17;24.70;99.90
18335;DHT22;9293;49.524;10.964;2023-09-18T11:49:54;24.70;99.90
18335;DHT22;9293;49.524;10.964;2023-09-18T11:52:24;24.70;99.90
18335;DHT22;9293;49.524;10.964;2023-09-18T11:54:58;24.70;99.90
18335;DHT22;9293;49.524;10.964;2023-09-18T11:57:35;24.50;99.90
18335;DHT22;9293;49.524;10.964;2023-09-18T12:00:04;24.50;99.90
18335;DHT22;9293;49.524;10.964;2023-09-18T12:02:40;24.40;99.90
18335;DHT22;9293;49.524;10.964;2023-09-18T12:05:14;24.20;99.90
18335;DHT22;9293;49.524;10.964;2023-09-18T12:07:43;24.10;99.90
18335;DHT22;9293;49.524;10.964;2023-09-18T12:10:16;23.80;99.90
18335;DHT22;9293;49.524;10.964;2023-09-18T12:12:45;23.50;99.90
18335;DHT22;9293;49.524;10.964;2023-09-18T12:15:17;23.30;99.90
18335;DHT22;9293;49.524;10.964;2023-09-18T12:17:47;23.10;99.90
18335;DHT22;9293;49.524;10.964;2023-09-18T12:20:16;22.90;99.90
18335;DHT22;9293;49.524;10.964;2023-09-18T12:22:47;22.80;99.90
18335;DHT22;9293;49.524;10.964;2023-09-18T12:25:16;22.70;99.90
18335;DHT22;9293;49.524;10.964;2023-09-18T12:27:46;22.50;99.90
18335;DHT22;9293;49.524;10.964;2023-09-18T12:30:19;22.40;99.90
18335;DHT22;9293;49.524;10.964;2023-09-18T12:32:52;22.20;99.90
18335;DHT22;9293;49.524;10.964;2023-09-18T12:35:20;22.10;99.90
18335;DHT22;9293;49.524;10.964;2023-09-18T12:37:49;21.90;99.90
18335;DHT22;9293;49.524;10.964;2023-09-18T12:40:20;21.80;99.90
18335;DHT22;9293;49.524;10.964;2023-09-18T12:42:49;21.70;99.90
18335;DHT22;9293;49.524;10.964;2023-09-18T12:45:18;21.70;99.90
18335;DHT22;9293;49.524;10.964;2023-09-18T12:47:46;21.60;99.90
18335;DHT22;9293;49.524;10.964;2023-09-18T12:50:15;21.30;99.90
18335;DHT22;9293;49.524;10.964;2023-09-18T12:52:43;21.30;99.90
18335;DHT22;9293;49.524;10.964;2023-09-18T12:55:25;21.20;99.90
18335;DHT22;9293;49.524;10.964;2023-09-18T12:57:54;21.00;99.90
18335;DHT22;9293;49.524;10.964;2023-09-18T13:00:23;21.00;99.90
18335;DHT22;9293;49.524;10.964;2023-09-18T13:02:54;20.80;99.90
18335;DHT22;9293;49.524;10.964;2023-09-18T13:05:25;20.60;99.90
18335;DHT22;9293;49.524;10.964;2023-09-18T13:07:54;20.50;99.90
18335;DHT22;9293;49.524;10.964;2023-09-18T13:10:22;20.40;99.90
18335;DHT22;9293;49.524;10.964;2023-09-18T13:12:54;20.20;99.90
18335;DHT22;9293;49.524;10.964;2023-09-18T13:15:27;20.20;99.90
18335;DHT22;9293;49.524;10.964;2023-09-18T13:17:56;20.30;99.90
18335;DHT22;9293;49.524;10.964;2023-09-18T13:20:25;20.20;99.90
18335;DHT22;9293;49.524;10.964;2023-09-18T13:22:55;20.20;99.90
18335;DHT22;9293;49.524;10.964;2023-09-18T13:25:24;20.20;99.90
18335;DHT22;9293;49.524;10.964;2023-09-18T13:27:53;20.20;99.90
18335;DHT22;9293;49.524;10.964;2023-09-18T13:30:22;20.20;99.90
18335;DHT22;9293;49.524;10.964;2023-09-18T13:32:50;20.00;99.90
18335;DHT22;9293;49.524;10.964;2023-09-18T13:35:21;19.90;99.90
18335;DHT22;9293;49.524;10.964;2023-09-18T13:37:50;19.80;99.90
18335;DHT22;9293;49.524;10.964;2023-09-18T13:40:18;19.70;99.90
18335;DHT22;9293;49.524;10.964;2023-09-18T13:42:49;19.60;99.90
18335;DHT22;9293;49.524;10.964;2023-09-18T13:45:17;19.50;99.90
18335;DHT22;9293;49.524;10.964;2023-09-18T13:47:45;19.50;99.90
18335;DHT22;9293;49.524;10.964;2023-09-18T13:50:13;19.40;99.90
18335;DHT22;9293;49.524;10.964;2023-09-18T13:52:41;19.40;99.90
18335;DHT22;9293;49.524;10.964;2023-09-18T13:55:09;19.40;99.90
18335;DHT22;9293;49.524;10.964;2023-09-18T13:57:38;19.40;99.90
18335;DHT22;9293;49.524;10.964;2023-09-18T14:00:08;19.30;99.90
18335;DHT22;9293;49.524;10.964;2023-09-18T14:02:40;19.30;99.90
18335;DHT22;9293;49.524;10.964;2023-09-18T14:05:09;19.30;99.90
18335;DHT22;9293;49.524;10.964;2023-09-18T14:07:43;19.30;99.90
18335;DHT22;9293;49.524;10.964;2023-09-18T14:10:13;19.20;99.90
18335;DHT22;9293;49.524;10.964;2023-09-18T14:12:41;19.20;99.90
18335;DHT22;9293;49.524;10.964;2023-09-18T14:15:09;19.10;99.90
18335;DHT22;9293;49.524;10.964;2023-09-18T14:17:38;19.00;99.90
18335;DHT22;9293;49.524;10.964;2023-09-18T14:20:07;19.00;99.90
18335;DHT22;9293;49.524;10.964;2023-09-18T14:22:35;18.90;99.90
18335;DHT22;9293;49.524;10.964;2023-09-18T14:25:04;18.90;99.90
18335;DHT22;9293;49.524;10.964;2023-09-18T14:27:34;18.90;99.90
18335;DHT22;9293;49.524;10.964;2023-09-18T14:30:03;18.90;99.90
18335;DHT22;9293;49.524;10.964;2023-09-18T14:32:34;18.80;99.90
18335;DHT22;9293;49.524;10.964;2023-09-18T14:35:05;18.80;99.90
18335;DHT22;9293;49.524;10.964;2023-09-18T14:37:36;18.80;99.90
18335;DHT22;9293;49.524;10.964;2023-09-18T14:40:04;18.70;99.90
18335;DHT22;9293;49.524;10.964;2023-09-18T14:42:32;18.60;99.90
18335;DHT22;9293;49.524;10.964;2023-09-18T14:45:01;18.50;99.90
18335;DHT22;9293;49.524;10.964;2023-09-18T14:47:29;18.50;99.90
18335;DHT22;9293;49.524;10.964;2023-09-18T14:49:58;18.40;99.90
18335;DHT22;9293;49.524;10.964;2023-09-18T14:52:26;18.40;99.90
18335;DHT22;9293;49.524;10.964;2023-09-18T14:55:05;18.40;99.90
18335;DHT22;9293;49.524;10.964;2023-09-18T14:57:33;18.50;99.90
18335;DHT22;9293;49.524;10.964;2023-09-18T15:00:01;18.60;99.90
18335;DHT22;9293;49.524;10.964;2023-09-18T15:02:33;18.70;99.90
18335;DHT22;9293;49.524;10.964;2023-09-18T15:05:03;18.80;99.90
18335;DHT22;9293;49.524;10.964;2023-09-18T15:07:35;18.80;99.90
18335;DHT22;9293;49.524;10.964;2023-09-18T15:10:03;18.90;99.90
18335;DHT22;9293;49.524;10.964;2023-09-18T15:12:33;18.90;99.90
18335;DHT22;9293;49.524;10.964;2023-09-18T15:15:01;19.00;99.90
18335;DHT22;9293;49.524;10.964;2023-09-18T15:17:29;19.00;99.90
18335;DHT22;9293;49.524;10.964;2023-09-18T15:19:57;19.00;99.90
18335;DHT22;9293;49.524;10.964;2023-09-18T15:22:25;19.20;99.90
18335;DHT22;9293;49.524;10.964;2023-09-18T15:24:53;19.20;99.90
18335;DHT22;9293;49.524;10.964;2023-09-18T15:27:26;19.30;99.90
18335;DHT22;9293;49.524;10.964;2023-09-18T15:29:54;19.20;99.90
18335;DHT22;9293;49.524;10.964;2023-09-18T15:32:22;19.20;99.90
18335;DHT22;9293;49.524;10.964;2023-09-18T15:34:51;19.20;99.90
18335;DHT22;9293;49.524;10.964;2023-09-18T15:37:19;19.20;99.90
18335;DHT22;9293;49.524;10.964;2023-09-18T15:39:48;19.20;99.90
18335;DHT22;9293;49.524;10.964;2023-09-18T15:42:18;19.20;99.90
18335;DHT22;9293;49.524;10.964;2023-09-18T15:44:47;19.20;99.90
18335;DHT22;9293;49.524;10.964;2023-09-18T15:47:15;19.30;99.90
18335;DHT22;9293;49.524;10.964;2023-09-18T15:49:43;19.30;99.90
18335;DHT22;9293;49.524;10.964;2023-09-18T15:52:11;19.30;99.90
18335;DHT22;9293;49.524;10.964;2023-09-18T15:54:39;19.30;99.90
18335;DHT22;9293;49.524;10.964;2023-09-18T15:57:08;19.30;99.90